sensor_id;sensor_type;location;lat;lon;timestamp;temperature;humidity
16823;DHT22;8528;49.976;11.858;2022-08-19T00:02:25;17.40;99.90
16823;DHT22;8528;49.976;11.858;2022-08-19T00:05:03;17.40;99.90
16823;DHT22;8528;49.976;11.858;2022-08-19T00:07:30;17.50;99.90
16823;DHT22;8528;49.976;11.858;2022-08-19T00:10:00;17.50;99.90
16823;DHT22;8528;49.976;11.858;2022-08-19T00:12:30;17.50;99.90
16823;DHT22;8528;49.976;11.858;2022-08-19T00:14:57;17.50;99.90
16823;DHT22;8528;49.976;11.858;2022-08-19T00:17:27;17.50;99.90
16823;DHT22;8528;49.976;11.858;2022-08-19T00:19:57;17.50;99.90
16823;DHT22;8528;49.976;11.858;2022-08-19T00:22:27;17.50;99.90
16823;DHT22;8528;49.976;11.858;2022-08-19T00:24:58;17.50;99.90
16823;DHT22;8528;49.976;11.858;2022-08-19T00:27:27;17.50;99.90
16823;DHT22;8528;49.976;11.858;2022-08-19T00:29:57;17.50;99.90
16823;DHT22;8528;49.976;11.858;2022-08-19T00:32:29;17.50;99.90
16823;DHT22;8528;49.976;11.858;2022-08-19T00:34:56;17.50;99.90
16823;DHT22;8528;49.976;11.858;2022-08-19T00:37:25;17.50;99.90
16823;DHT22;8528;49.976;11.858;2022-08-19T00:39:54;17.40;99.90
16823;DHT22;8528;49.976;11.858;2022-08-19T00:42:22;17.30;99.90
16823;DHT22;8528;49.976;11.858;2022-08-19T00:44:51;17.30;99.90
16823;DHT22;8528;49.976;11.858;2022-08-19T00:47:18;17.30;99.90
16823;DHT22;8528;49.976;11.858;2022-08-19T00:49:55;17.30;99.90
16823;DHT22;8528;49.976;11.858;2022-08-19T00:52:27;17.20;99.90
16823;DHT22;8528;49.976;11.858;2022-08-19T00:55:00;17.20;99.90
16823;DHT22;8528;49.976;11.858;2022-08-19T00:57:38;17.20;99.90
16823;DHT22;8528;49.976;11.858;2022-08-19T01:00:13;17.20;99.90
16823;DHT22;8528;49.976;11.858;2022-08-19T01:02:41;17.20;99.90
16823;DHT22;8528;49.976;11.858;2022-08-19T01:05:14;17.20;99.90
16823;DHT22;8528;49.976;11.858;2022-08-19T01:07:45;17.20;99.90
16823;DHT22;8528;49.976;11.858;2022-08-19T01:10:20;17.20;99.90
16823;DHT22;8528;49.976;11.858;2022-08-19T01:12:51;17.20;99.90
16823;DHT22;8528;49.976;11.858;2022-08-19T01:15:23;17.10;99.90
16823;DHT22;8528;49.976;11.858;2022-08-19T01:17:52;17.20;99.90
16823;DHT22;8528;49.976;11.858;2022-08-19T01:20:22;17.20;99.90
16823;DHT22;8528;49.976;11.858;2022-08-19T01:22:52;17.20;99.90
16823;DHT22;8528;49.976;11.858;2022-08-19T01:25:24;17.30;99.90
16823;DHT22;8528;49.976;11.858;2022-08-19T01:27:54;17.30;99.90
16823;DHT22;8528;49.976;11.858;2022-08-19T01:30:33;17.40;99.90
16823;DHT22;8528;49.976;11.858;2022-08-19T01:33:03;17.40;99.90
16823;DHT22;8528;49.976;11.858;2022-08-19T01:35:33;17.40;99.90
16823;DHT22;8528;49.976;11.858;2022-08-19T01:38:05;17.50;99.90
16823;DHT22;8528;49.976;11.858;2022-08-19T01:40:39;17.50;99.90
16823;DHT22;8528;49.976;11.858;2022-08-19T01:43:06;17.40;99.90
16823;DHT22;8528;49.976;11.858;2022-08-19T01:45:37;17.40;99.90
16823;DHT22;8528;49.976;11.858;2022-08-19T01:48:08;17.30;99.90
16823;DHT22;8528;49.976;11.858;2022-08-19T01:50:35;17.40;99.90
16823;DHT22;8528;49.976;11.858;2022-08-19T01:53:04;17.40;99.90
16823;DHT22;8528;49.976;11.858;2022-08-19T01:55:36;17.40;99.90
16823;DHT22;8528;49.976;11.858;2022-08-19T01:58:20;17.50;99.90
16823;DHT22;8528;49.976;11.858;2022-08-19T02:00:49;17.50;99.90
16823;DHT22;8528;49.976;11.858;2022-08-19T02:03:16;17.50;99.90
16823;DHT22;8528;49.976;11.858;2022-08-19T02:05:47;17.50;99.90
16823;DHT22;8528;49.976;11.858;2022-08-19T02:08:14;17.50;99.90
16823;DHT22;8528;49.976;11.858;2022-08-19T02:10:42;17.50;99.90
16823;DHT22;8528;49.976;11.858;2022-08-19T02:13:13;17.50;99.90
16823;DHT22;8528;49.976;11.858;2022-08-19T02:15:40;17.60;99.90
16823;DHT22;8528;49.976;11.858;2022-08-19T02:18:07;17.60;99.90
16823;DHT22;8528;49.976;11.858;2022-08-19T02:20:35;17.70;99.90
16823;DHT22;8528;49.976;11.858;2022-08-19T02:23:02;17.70;99.90
16823;DHT22;8528;49.976;11.858;2022-08-19T02:25:32;17.70;99.90
16823;DHT22;8528;49.976;11.858;2022-08-19T02:28:00;17.60;99.90
16823;DHT22;8528;49.976;11.858;2022-08-19T02:30:30;17.60;99.90
16823;DHT22;8528;49.976;11.858;2022-08-19T02:33:05;17.60;99.90
16823;DHT22;8528;49.976;11.858;2022-08-19T02:35:32;17.60;99.90
16823;DHT22;8528;49.976;11.858;2022-08-19T02:37:59;17.50;99.90
16823;DHT22;8528;49.976;11.858;2022-08-19T02:40:50;17.50;99.90
16823;DHT22;8528;49.976;11.858;2022-08-19T02:43:25;17.50;99.90
16823;DHT22;8528;49.976;11.858;2022-08-19T02:46:24;17.60;99.90
16823;DHT22;8528;49.976;11.858;2022-08-19T02:48:53;17.60;99.90
16823;DHT22;8528;49.976;11.858;2022-08-19T02:51:26;17.60;99.90
16823;DHT22;8528;49.976;11.858;2022-08-19T02:53:53;17.60;99.90
16823;DHT22;8528;49.976;11.858;2022-08-19T02:56:23;17.60;99.90
16823;DHT22;8528;49.976;11.858;2022-08-19T02:58:54;17.60;99.90
16823;DHT22;8528;49.976;11.858;2022-08-19T03:01:30;17.70;99.90
16823;DHT22;8528;49.976;11.858;2022-08-19T03:04:08;17.70;99.90
16823;DHT22;8528;49.976;11.858;2022-08-19T03:06:37;17.60;99.90
16823;DHT22;8528;49.976;11.858;2022-08-19T03:09:05;17.60;99.90
16823;DHT22;8528;49.976;11.858;2022-08-19T03:11:32;17.60;99.90
16823;DHT22;8528;49.976;11.858;2022-08-19T03:14:00;17.60;99.90
16823;DHT22;8528;49.976;11.858;2022-08-19T03:16:36;17.50;99.90
16823;DHT22;8528;49.976;11.858;2022-08-19T03:19:06;17.60;99.90
16823;DHT22;8528;49.976;11.858;2022-08-19T03:21:34;17.50;99.90
16823;DHT22;8528;49.976;11.858;2022-08-19T03:24:06;17.50;99.90
16823;DHT22;8528;49.976;11.858;2022-08-19T03:26:41;17.50;99.90
16823;DHT22;8528;49.976;11.858;2022-08-19T03:29:09;17.40;99.90
16823;DHT22;8528;49.976;11.858;2022-08-19T03:32:00;17.50;99.90
16823;DHT22;8528;49.976;11.858;2022-08-19T03:34:32;17.50;99.90
16823;DHT22;8528;49.976;11.858;2022-08-19T03:37:05;17.40;99.90
16823;DHT22;8528;49.976;11.858;2022-08-19T03:39:37;17.30;99.90
16823;DHT22;8528;49.976;11.858;2022-08-19T03:42:05;17.30;99.90
16823;DHT22;8528;49.976;11.858;2022-08-19T03:44:52;17.30;99.90
16823;DHT22;8528;49.976;11.858;2022-08-19T03:47:21;17.30;99.90
16823;DHT22;8528;49.976;11.858;2022-08-19T03:49:48;17.30;99.90
16823;DHT22;8528;49.976;11.858;2022-08-19T03:52:15;17.30;99.90
16823;DHT22;8528;49.976;11.858;2022-08-19T03:54:48;17.30;99.90
16823;DHT22;8528;49.976;11.858;2022-08-19T03:57:15;17.20;99.90
16823;DHT22;8528;49.976;11.858;2022-08-19T03:59:42;17.30;99.90
16823;DHT22;8528;49.976;11.858;2022-08-19T04:02:11;17.30;99.90
16823;DHT22;8528;49.976;11.858;2022-08-19T04:04:40;17.20;99.90
16823;DHT22;8528;49.976;11.858;2022-08-19T04:07:11;17.20;99.90
16823;DHT22;8528;49.976;11.858;2022-08-19T04:09:43;17.20;99.90
16823;DHT22;8528;49.976;11.858;2022-08-19T04:12:13;17.20;99.90
16823;DHT22;8528;49.976;11.858;2022-08-19T04:14:41;17.20;99.90
16823;DHT22;8528;49.976;11.858;2022-08-19T04:17:17;17.20;99.90
16823;DHT22;8528;49.976;11.858;2022-08-19T04:19:44;17.20;99.90
16823;DHT22;8528;49.976;11.858;2022-08-19T04:22:11;17.20;99.90
16823;DHT22;8528;49.976;11.858;2022-08-19T04:24:41;17.10;99.90
16823;DHT22;8528;49.976;11.858;2022-08-19T04:27:11;17.10;99.90
16823;DHT22;8528;49.976;11.858;2022-08-19T04:29:38;17.20;99.90
16823;DHT22;8528;49.976;11.858;2022-08-19T04:32:06;17.20;99.90
16823;DHT22;8528;49.976;11.858;2022-08-19T04:34:36;17.10;99.90
16823;DHT22;8528;49.976;11.858;2022-08-19T04:37:23;17.20;99.90
16823;DHT22;8528;49.976;11.858;2022-08-19T04:39:51;17.20;99.90
16823;DHT22;8528;49.976;11.858;2022-08-19T04:42:45;17.20;99.90
16823;DHT22;8528;49.976;11.858;2022-08-19T04:45:13;17.30;99.90
16823;DHT22;8528;49.976;11.858;2022-08-19T04:47:43;17.30;99.90
16823;DHT22;8528;49.976;11.858;2022-08-19T04:50:24;17.30;99.90
16823;DHT22;8528;49.976;11.858;2022-08-19T04:52:52;17.50;99.90
16823;DHT22;8528;49.976;11.858;2022-08-19T04:55:20;17.50;99.90
16823;DHT22;8528;49.976;11.858;2022-08-19T04:57:46;17.60;99.90
16823;DHT22;8528;49.976;11.858;2022-08-19T05:00:14;17.60;99.90
16823;DHT22;8528;49.976;11.858;2022-08-19T05:02:44;17.70;99.90
16823;DHT22;8528;49.976;11.858;2022-08-19T05:05:11;17.70;99.90
16823;DHT22;8528;49.976;11.858;2022-08-19T05:07:38;17.80;99.90
16823;DHT22;8528;49.976;11.858;2022-08-19T05:10:08;17.90;99.90
16823;DHT22;8528;49.976;11.858;2022-08-19T05:12:38;17.90;99.90
16823;DHT22;8528;49.976;11.858;2022-08-19T05:15:06;18.00;99.90
16823;DHT22;8528;49.976;11.858;2022-08-19T05:17:37;18.00;99.90
16823;DHT22;8528;49.976;11.858;2022-08-19T05:20:06;18.10;99.90
16823;DHT22;8528;49.976;11.858;2022-08-19T05:22:56;18.10;99.90
16823;DHT22;8528;49.976;11.858;2022-08-19T05:25:23;18.10;99.90
16823;DHT22;8528;49.976;11.858;2022-08-19T05:27:52;18.10;99.90
16823;DHT22;8528;49.976;11.858;2022-08-19T05:30:22;18.10;99.90
16823;DHT22;8528;49.976;11.858;2022-08-19T05:33:12;18.10;99.90
16823;DHT22;8528;49.976;11.858;2022-08-19T05:35:42;18.10;99.90
16823;DHT22;8528;49.976;11.858;2022-08-19T05:38:13;18.10;99.90
16823;DHT22;8528;49.976;11.858;2022-08-19T05:40:40;18.10;99.90
16823;DHT22;8528;49.976;11.858;2022-08-19T05:43:10;18.00;99.90
16823;DHT22;8528;49.976;11.858;2022-08-19T05:45:39;18.10;99.90
16823;DHT22;8528;49.976;11.858;2022-08-19T05:48:06;18.10;99.90
16823;DHT22;8528;49.976;11.858;2022-08-19T05:50:35;18.10;99.90
16823;DHT22;8528;49.976;11.858;2022-08-19T05:53:02;18.10;99.90
16823;DHT22;8528;49.976;11.858;2022-08-19T05:55:32;18.10;99.90
16823;DHT22;8528;49.976;11.858;2022-08-19T05:57:59;18.10;99.90
16823;DHT22;8528;49.976;11.858;2022-08-19T06:00:28;18.10;99.90
16823;DHT22;8528;49.976;11.858;2022-08-19T06:02:57;18.20;99.90
16823;DHT22;8528;49.976;11.858;2022-08-19T06:05:41;18.20;99.90
16823;DHT22;8528;49.976;11.858;2022-08-19T06:08:17;18.10;99.90
16823;DHT22;8528;49.976;11.858;2022-08-19T06:10:45;18.00;99.90
16823;DHT22;8528;49.976;11.858;2022-08-19T06:13:22;18.00;99.90
16823;DHT22;8528;49.976;11.858;2022-08-19T06:15:50;17.90;99.90
16823;DHT22;8528;49.976;11.858;2022-08-19T06:18:17;17.90;99.90
16823;DHT22;8528;49.976;11.858;2022-08-19T06:20:44;18.00;99.90
16823;DHT22;8528;49.976;11.858;2022-08-19T06:23:21;18.20;99.90
16823;DHT22;8528;49.976;11.858;2022-08-19T06:25:49;18.40;99.90
16823;DHT22;8528;49.976;11.858;2022-08-19T06:28:17;18.40;99.90
16823;DHT22;8528;49.976;11.858;2022-08-19T06:30:44;18.40;99.90
16823;DHT22;8528;49.976;11.858;2022-08-19T06:33:14;18.40;99.90
16823;DHT22;8528;49.976;11.858;2022-08-19T06:35:41;18.50;99.90
16823;DHT22;8528;49.976;11.858;2022-08-19T06:38:08;18.50;99.90
16823;DHT22;8528;49.976;11.858;2022-08-19T06:40:39;18.50;99.90
16823;DHT22;8528;49.976;11.858;2022-08-19T06:43:06;18.60;99.90
16823;DHT22;8528;49.976;11.858;2022-08-19T06:45:37;18.70;99.90
16823;DHT22;8528;49.976;11.858;2022-08-19T06:48:07;18.80;99.90
16823;DHT22;8528;49.976;11.858;2022-08-19T06:50:38;18.80;99.90
16823;DHT22;8528;49.976;11.858;2022-08-19T06:53:06;18.90;99.90
16823;DHT22;8528;49.976;11.858;2022-08-19T06:55:33;19.00;99.90
16823;DHT22;8528;49.976;11.858;2022-08-19T06:58:04;19.10;99.90
16823;DHT22;8528;49.976;11.858;2022-08-19T07:00:32;19.20;99.90
16823;DHT22;8528;49.976;11.858;2022-08-19T07:03:00;19.40;99.90
16823;DHT22;8528;49.976;11.858;2022-08-19T07:05:38;19.60;99.90
16823;DHT22;8528;49.976;11.858;2022-08-19T07:08:13;19.90;99.90
16823;DHT22;8528;49.976;11.858;2022-08-19T07:10:45;20.10;99.90
16823;DHT22;8528;49.976;11.858;2022-08-19T07:13:12;20.20;99.90
16823;DHT22;8528;49.976;11.858;2022-08-19T07:15:39;20.30;99.90
16823;DHT22;8528;49.976;11.858;2022-08-19T07:18:06;20.20;99.90
16823;DHT22;8528;49.976;11.858;2022-08-19T07:20:37;20.20;99.90
16823;DHT22;8528;49.976;11.858;2022-08-19T07:23:07;20.40;99.90
16823;DHT22;8528;49.976;11.858;2022-08-19T07:25:36;20.70;99.90
16823;DHT22;8528;49.976;11.858;2022-08-19T07:28:03;21.10;99.90
16823;DHT22;8528;49.976;11.858;2022-08-19T07:30:31;21.40;99.90
16823;DHT22;8528;49.976;11.858;2022-08-19T07:33:01;21.50;99.90
16823;DHT22;8528;49.976;11.858;2022-08-19T07:35:29;21.50;99.90
16823;DHT22;8528;49.976;11.858;2022-08-19T07:38:01;21.70;99.90
16823;DHT22;8528;49.976;11.858;2022-08-19T07:40:29;21.90;99.90
16823;DHT22;8528;49.976;11.858;2022-08-19T07:42:59;22.00;99.90
16823;DHT22;8528;49.976;11.858;2022-08-19T07:45:26;22.10;99.90
16823;DHT22;8528;49.976;11.858;2022-08-19T07:47:54;22.40;99.90
16823;DHT22;8528;49.976;11.858;2022-08-19T07:50:21;22.60;99.90
16823;DHT22;8528;49.976;11.858;2022-08-19T07:52:56;22.50;99.90
16823;DHT22;8528;49.976;11.858;2022-08-19T07:55:26;22.20;99.90
16823;DHT22;8528;49.976;11.858;2022-08-19T07:58:14;22.10;99.90
16823;DHT22;8528;49.976;11.858;2022-08-19T08:00:42;22.20;99.90
16823;DHT22;8528;49.976;11.858;2022-08-19T08:03:11;21.90;99.90
16823;DHT22;8528;49.976;11.858;2022-08-19T08:05:38;21.40;99.90
16823;DHT22;8528;49.976;11.858;2022-08-19T08:08:24;21.10;99.90
16823;DHT22;8528;49.976;11.858;2022-08-19T08:11:19;21.00;99.90
16823;DHT22;8528;49.976;11.858;2022-08-19T08:13:49;20.90;99.90
16823;DHT22;8528;49.976;11.858;2022-08-19T08:16:29;20.80;99.90
16823;DHT22;8528;49.976;11.858;2022-08-19T08:18:58;20.40;99.90
16823;DHT22;8528;49.976;11.858;2022-08-19T08:21:25;20.10;99.90
16823;DHT22;8528;49.976;11.858;2022-08-19T08:23:57;19.90;99.90
16823;DHT22;8528;49.976;11.858;2022-08-19T08:26:30;19.60;99.90
16823;DHT22;8528;49.976;11.858;2022-08-19T08:29:00;19.60;99.90
16823;DHT22;8528;49.976;11.858;2022-08-19T08:31:39;19.60;99.90
16823;DHT22;8528;49.976;11.858;2022-08-19T08:34:08;19.50;99.90
16823;DHT22;8528;49.976;11.858;2022-08-19T08:36:40;19.60;99.90
16823;DHT22;8528;49.976;11.858;2022-08-19T08:39:09;19.80;99.90
16823;DHT22;8528;49.976;11.858;2022-08-19T08:41:53;20.10;99.90
16823;DHT22;8528;49.976;11.858;2022-08-19T08:44:36;20.30;99.90
16823;DHT22;8528;49.976;11.858;2022-08-19T08:47:16;20.60;99.90
16823;DHT22;8528;49.976;11.858;2022-08-19T08:50:03;20.60;99.90
16823;DHT22;8528;49.976;11.858;2022-08-19T08:52:34;20.60;99.90
16823;DHT22;8528;49.976;11.858;2022-08-19T08:55:11;20.60;99.90
16823;DHT22;8528;49.976;11.858;2022-08-19T09:00:19;20.60;99.90
16823;DHT22;8528;49.976;11.858;2022-08-19T09:02:53;20.50;99.90
16823;DHT22;8528;49.976;11.858;2022-08-19T09:05:21;20.60;99.90
16823;DHT22;8528;49.976;11.858;2022-08-19T09:08:10;20.70;99.90
16823;DHT22;8528;49.976;11.858;2022-08-19T09:10:51;20.70;99.90
16823;DHT22;8528;49.976;11.858;2022-08-19T09:16:19;20.20;99.90
16823;DHT22;8528;49.976;11.858;2022-08-19T09:18:57;20.20;99.90
16823;DHT22;8528;49.976;11.858;2022-08-19T09:21:25;20.10;99.90
16823;DHT22;8528;49.976;11.858;2022-08-19T09:24:03;20.10;99.90
16823;DHT22;8528;49.976;11.858;2022-08-19T09:26:32;20.00;99.90
16823;DHT22;8528;49.976;11.858;2022-08-19T09:29:18;20.00;99.90
16823;DHT22;8528;49.976;11.858;2022-08-19T09:31:48;19.80;99.90
16823;DHT22;8528;49.976;11.858;2022-08-19T09:34:19;19.70;99.90
16823;DHT22;8528;49.976;11.858;2022-08-19T09:36:48;19.50;99.90
16823;DHT22;8528;49.976;11.858;2022-08-19T09:39:22;19.40;99.90
16823;DHT22;8528;49.976;11.858;2022-08-19T09:41:49;19.40;99.90
16823;DHT22;8528;49.976;11.858;2022-08-19T09:44:17;19.30;99.90
16823;DHT22;8528;49.976;11.858;2022-08-19T09:46:44;19.30;99.90
16823;DHT22;8528;49.976;11.858;2022-08-19T09:49:15;19.30;99.90
16823;DHT22;8528;49.976;11.858;2022-08-19T09:51:44;19.50;99.90
16823;DHT22;8528;49.976;11.858;2022-08-19T09:54:16;19.70;99.90
16823;DHT22;8528;49.976;11.858;2022-08-19T09:56:51;20.00;99.90
16823;DHT22;8528;49.976;11.858;2022-08-19T09:59:17;20.20;99.90
16823;DHT22;8528;49.976;11.858;2022-08-19T10:01:45;20.30;99.90
16823;DHT22;8528;49.976;11.858;2022-08-19T10:04:15;20.30;99.90
16823;DHT22;8528;49.976;11.858;2022-08-19T10:06:50;20.30;99.90
16823;DHT22;8528;49.976;11.858;2022-08-19T10:09:19;20.30;99.90
16823;DHT22;8528;49.976;11.858;2022-08-19T10:12:00;20.20;99.90
16823;DHT22;8528;49.976;11.858;2022-08-19T10:14:28;20.20;99.90
16823;DHT22;8528;49.976;11.858;2022-08-19T10:16:55;20.10;99.90
16823;DHT22;8528;49.976;11.858;2022-08-19T10:19:24;20.00;99.90
16823;DHT22;8528;49.976;11.858;2022-08-19T10:21:53;19.90;99.90
16823;DHT22;8528;49.976;11.858;2022-08-19T10:24:29;19.70;99.90
16823;DHT22;8528;49.976;11.858;2022-08-19T10:27:01;19.50;99.90
16823;DHT22;8528;49.976;11.858;2022-08-19T10:29:34;19.50;99.90
16823;DHT22;8528;49.976;11.858;2022-08-19T10:32:03;19.40;99.90
16823;DHT22;8528;49.976;11.858;2022-08-19T10:34:39;19.40;99.90
16823;DHT22;8528;49.976;11.858;2022-08-19T10:37:24;19.30;99.90
16823;DHT22;8528;49.976;11.858;2022-08-19T10:39:57;19.30;99.90
16823;DHT22;8528;49.976;11.858;2022-08-19T10:42:24;19.30;99.90
16823;DHT22;8528;49.976;11.858;2022-08-19T10:44:54;19.30;99.90
16823;DHT22;8528;49.976;11.858;2022-08-19T10:47:22;19.30;99.90
16823;DHT22;8528;49.976;11.858;2022-08-19T10:49:53;19.30;99.90
16823;DHT22;8528;49.976;11.858;2022-08-19T10:52:43;19.20;99.90
16823;DHT22;8528;49.976;11.858;2022-08-19T10:55:17;19.10;99.90
16823;DHT22;8528;49.976;11.858;2022-08-19T10:58:02;19.00;99.90
16823;DHT22;8528;49.976;11.858;2022-08-19T11:00:33;19.00;99.90
16823;DHT22;8528;49.976;11.858;2022-08-19T11:03:00;18.90;99.90
16823;DHT22;8528;49.976;11.858;2022-08-19T11:05:27;19.00;99.90
16823;DHT22;8528;49.976;11.858;2022-08-19T11:08:05;19.10;99.90
16823;DHT22;8528;49.976;11.858;2022-08-19T11:10:49;19.20;99.90
16823;DHT22;8528;49.976;11.858;2022-08-19T11:13:16;19.30;99.90
16823;DHT22;8528;49.976;11.858;2022-08-19T11:15:43;19.20;99.90
16823;DHT22;8528;49.976;11.858;2022-08-19T11:18:12;19.30;99.90
16823;DHT22;8528;49.976;11.858;2022-08-19T11:20:40;19.30;99.90
16823;DHT22;8528;49.976;11.858;2022-08-19T11:23:14;19.30;99.90
16823;DHT22;8528;49.976;11.858;2022-08-19T11:25:40;19.20;99.90
16823;DHT22;8528;49.976;11.858;2022-08-19T11:28:08;19.20;99.90
16823;DHT22;8528;49.976;11.858;2022-08-19T11:30:37;19.20;99.90
16823;DHT22;8528;49.976;11.858;2022-08-19T11:33:07;19.20;99.90
16823;DHT22;8528;49.976;11.858;2022-08-19T11:35:39;19.20;99.90
16823;DHT22;8528;49.976;11.858;2022-08-19T11:38:08;19.20;99.90
16823;DHT22;8528;49.976;11.858;2022-08-19T11:40:35;19.10;99.90
16823;DHT22;8528;49.976;11.858;2022-08-19T11:43:03;19.00;99.90
16823;DHT22;8528;49.976;11.858;2022-08-19T11:45:30;19.00;99.90
16823;DHT22;8528;49.976;11.858;2022-08-19T11:47:57;19.00;99.90
16823;DHT22;8528;49.976;11.858;2022-08-19T11:50:24;18.90;99.90
16823;DHT22;8528;49.976;11.858;2022-08-19T11:52:55;18.90;99.90
16823;DHT22;8528;49.976;11.858;2022-08-19T11:55:23;18.80;99.90
16823;DHT22;8528;49.976;11.858;2022-08-19T11:57:53;18.70;99.90
16823;DHT22;8528;49.976;11.858;2022-08-19T12:00:20;18.60;99.90
16823;DHT22;8528;49.976;11.858;2022-08-19T12:02:48;18.50;99.90
16823;DHT22;8528;49.976;11.858;2022-08-19T12:05:15;18.40;99.90
16823;DHT22;8528;49.976;11.858;2022-08-19T12:07:42;18.30;99.90
16823;DHT22;8528;49.976;11.858;2022-08-19T12:10:10;18.20;99.90
16823;DHT22;8528;49.976;11.858;2022-08-19T12:12:37;18.10;99.90
16823;DHT22;8528;49.976;11.858;2022-08-19T12:15:10;18.10;99.90
16823;DHT22;8528;49.976;11.858;2022-08-19T12:17:41;18.00;99.90
16823;DHT22;8528;49.976;11.858;2022-08-19T12:20:11;18.00;99.90
16823;DHT22;8528;49.976;11.858;2022-08-19T12:22:40;18.00;99.90
16823;DHT22;8528;49.976;11.858;2022-08-19T12:25:11;18.00;99.90
16823;DHT22;8528;49.976;11.858;2022-08-19T12:27:39;17.90;99.90
16823;DHT22;8528;49.976;11.858;2022-08-19T12:30:11;17.90;99.90
16823;DHT22;8528;49.976;11.858;2022-08-19T12:32:39;17.80;99.90
16823;DHT22;8528;49.976;11.858;2022-08-19T12:35:07;17.80;99.90
16823;DHT22;8528;49.976;11.858;2022-08-19T12:37:35;17.70;99.90
16823;DHT22;8528;49.976;11.858;2022-08-19T12:40:05;17.70;99.90
16823;DHT22;8528;49.976;11.858;2022-08-19T12:42:32;17.80;99.90
16823;DHT22;8528;49.976;11.858;2022-08-19T12:45:02;17.90;99.90
16823;DHT22;8528;49.976;11.858;2022-08-19T12:47:32;18.00;99.90
16823;DHT22;8528;49.976;11.858;2022-08-19T12:50:03;18.00;99.90
16823;DHT22;8528;49.976;11.858;2022-08-19T12:52:33;18.20;99.90
16823;DHT22;8528;49.976;11.858;2022-08-19T12:55:01;18.30;99.90
16823;DHT22;8528;49.976;11.858;2022-08-19T12:57:29;18.30;99.90
16823;DHT22;8528;49.976;11.858;2022-08-19T13:00:09;18.40;99.90
16823;DHT22;8528;49.976;11.858;2022-08-19T13:02:42;18.50;99.90
16823;DHT22;8528;49.976;11.858;2022-08-19T13:05:13;18.60;99.90
16823;DHT22;8528;49.976;11.858;2022-08-19T13:07:47;18.60;99.90
16823;DHT22;8528;49.976;11.858;2022-08-19T13:10:19;18.70;99.90
16823;DHT22;8528;49.976;11.858;2022-08-19T13:12:48;18.70;99.90
16823;DHT22;8528;49.976;11.858;2022-08-19T13:15:17;18.80;99.90
16823;DHT22;8528;49.976;11.858;2022-08-19T13:17:51;18.90;99.90
16823;DHT22;8528;49.976;11.858;2022-08-19T13:20:20;19.00;99.90
16823;DHT22;8528;49.976;11.858;2022-08-19T13:22:47;19.10;99.90
16823;DHT22;8528;49.976;11.858;2022-08-19T13:25:16;19.20;99.90
16823;DHT22;8528;49.976;11.858;2022-08-19T13:27:49;19.20;99.90
16823;DHT22;8528;49.976;11.858;2022-08-19T13:30:19;19.20;99.90
16823;DHT22;8528;49.976;11.858;2022-08-19T13:33:05;19.10;99.90
16823;DHT22;8528;49.976;11.858;2022-08-19T13:35:48;19.10;99.90
16823;DHT22;8528;49.976;11.858;2022-08-19T13:38:19;19.10;99.90
16823;DHT22;8528;49.976;11.858;2022-08-19T13:40:47;19.00;99.90
16823;DHT22;8528;49.976;11.858;2022-08-19T13:43:18;19.10;99.90
16823;DHT22;8528;49.976;11.858;2022-08-19T13:45:50;19.00;99.90
16823;DHT22;8528;49.976;11.858;2022-08-19T13:48:19;19.10;99.90
16823;DHT22;8528;49.976;11.858;2022-08-19T13:50:49;19.10;99.90
16823;DHT22;8528;49.976;11.858;2022-08-19T13:53:17;19.20;99.90
16823;DHT22;8528;49.976;11.858;2022-08-19T13:55:47;19.40;99.90
16823;DHT22;8528;49.976;11.858;2022-08-19T13:58:17;19.40;99.90
16823;DHT22;8528;49.976;11.858;2022-08-19T14:00:47;19.40;99.90
16823;DHT22;8528;49.976;11.858;2022-08-19T14:03:16;19.40;99.90
16823;DHT22;8528;49.976;11.858;2022-08-19T14:05:44;19.40;99.90
16823;DHT22;8528;49.976;11.858;2022-08-19T14:08:10;19.40;99.90
16823;DHT22;8528;49.976;11.858;2022-08-19T14:10:38;19.40;99.90
16823;DHT22;8528;49.976;11.858;2022-08-19T14:13:06;19.40;99.90
16823;DHT22;8528;49.976;11.858;2022-08-19T14:15:36;19.30;99.90
16823;DHT22;8528;49.976;11.858;2022-08-19T14:18:04;19.20;99.90
16823;DHT22;8528;49.976;11.858;2022-08-19T14:20:38;19.10;99.90
16823;DHT22;8528;49.976;11.858;2022-08-19T14:23:11;18.90;99.90
16823;DHT22;8528;49.976;11.858;2022-08-19T14:25:41;18.90;99.90
16823;DHT22;8528;49.976;11.858;2022-08-19T14:28:08;18.90;99.90
16823;DHT22;8528;49.976;11.858;2022-08-19T14:30:36;18.90;99.90
16823;DHT22;8528;49.976;11.858;2022-08-19T14:33:08;18.80;99.90
16823;DHT22;8528;49.976;11.858;2022-08-19T14:35:35;18.70;99.90
16823;DHT22;8528;49.976;11.858;2022-08-19T14:38:06;18.70;99.90
16823;DHT22;8528;49.976;11.858;2022-08-19T14:40:42;18.60;99.90
16823;DHT22;8528;49.976;11.858;2022-08-19T14:43:09;18.60;99.90
16823;DHT22;8528;49.976;11.858;2022-08-19T14:45:37;18.60;99.90
16823;DHT22;8528;49.976;11.858;2022-08-19T14:48:08;18.50;99.90
16823;DHT22;8528;49.976;11.858;2022-08-19T14:50:45;18.50;99.90
16823;DHT22;8528;49.976;11.858;2022-08-19T14:53:15;18.50;99.90
16823;DHT22;8528;49.976;11.858;2022-08-19T14:55:43;18.50;99.90
16823;DHT22;8528;49.976;11.858;2022-08-19T14:58:12;18.40;99.90
16823;DHT22;8528;49.976;11.858;2022-08-19T15:00:55;18.30;99.90
16823;DHT22;8528;49.976;11.858;2022-08-19T15:03:22;18.20;99.90
16823;DHT22;8528;49.976;11.858;2022-08-19T15:05:49;18.00;99.90
16823;DHT22;8528;49.976;11.858;2022-08-19T15:08:16;17.90;99.90
16823;DHT22;8528;49.976;11.858;2022-08-19T15:10:43;17.80;99.90
16823;DHT22;8528;49.976;11.858;2022-08-19T15:13:10;17.70;99.90
16823;DHT22;8528;49.976;11.858;2022-08-19T15:15:37;17.70;99.90
16823;DHT22;8528;49.976;11.858;2022-08-19T15:18:06;17.60;99.90
16823;DHT22;8528;49.976;11.858;2022-08-19T15:20:33;17.70;99.90
16823;DHT22;8528;49.976;11.858;2022-08-19T15:23:00;17.60;99.90
16823;DHT22;8528;49.976;11.858;2022-08-19T15:25:27;17.60;99.90
16823;DHT22;8528;49.976;11.858;2022-08-19T15:27:55;17.60;99.90
16823;DHT22;8528;49.976;11.858;2022-08-19T15:30:24;17.70;99.90
16823;DHT22;8528;49.976;11.858;2022-08-19T15:32:51;17.70;99.90
16823;DHT22;8528;49.976;11.858;2022-08-19T15:35:24;17.70;99.90
16823;DHT22;8528;49.976;11.858;2022-08-19T15:37:53;17.70;99.90
16823;DHT22;8528;49.976;11.858;2022-08-19T15:40:21;17.60;99.90
16823;DHT22;8528;49.976;11.858;2022-08-19T15:42:49;17.60;99.90
16823;DHT22;8528;49.976;11.858;2022-08-19T15:45:18;17.50;99.90
16823;DHT22;8528;49.976;11.858;2022-08-19T15:47:46;17.50;99.90
16823;DHT22;8528;49.976;11.858;2022-08-19T15:50:17;17.60;99.90
16823;DHT22;8528;49.976;11.858;2022-08-19T15:52:54;17.60;99.90
16823;DHT22;8528;49.976;11.858;2022-08-19T15:55:27;17.60;99.90
16823;DHT22;8528;49.976;11.858;2022-08-19T15:58:05;17.50;99.90
16823;DHT22;8528;49.976;11.858;2022-08-19T16:00:56;17.60;99.90